Latest Weather Observations for Mildura

IDN60801

Issued at 1:03 am EDT Monday 26 October 2020 (issued every 10 minutes, with the page automatically refreshed every 10 minutes)

About weather observations | Map of weather stations | Latest weather observations for NSW | Other Formats
Station Details ID: 076031 Name: MILDURA AIRPORT Lat: -34.24 Lon: 142.09 Height: 50.0 m
Data from the previous 72 hours. | See also: Recent months at Mildura
Date/Time
EDT
Temp
°C
App
Temp
°C
Dew
Point
°C
Rel
Hum
%
Delta-T
°C
Wind Press
QNH
hPa
Press
MSL
hPa
Rain since
9am
mm
Dir  Spd
km/h
Gust
km/h
Spd
kts
Gust
kts
26/01:00am 10.9 6.9 4.8 66 2.8 S 15 24 8 13 1019.6 1019.5 0.0
26/12:30am 11.5 6.5 4.5 62 3.2 SSE 20 32 11 17 1019.7 1019.6 0.0
26/12:00am 12.4 7.0 4.6 59 3.6 S 22 41 12 22 1019.7 1019.6 0.0
 
Date/Time
EDT
Temp
°C
App
Temp
°C
Dew
Point
°C
Rel
Hum
%
Delta-T
°C
Wind Press
QNH
hPa
Press
MSL
hPa
Rain since
9am
mm
Dir  Spd
km/h
Gust
km/h
Spd
kts
Gust
kts
25/11:30pm 12.8 8.0 4.5 57 3.8 S 19 30 10 16 1019.7 1019.6 0.0
25/11:00pm 13.3 8.2 3.1 50 4.5 S 19 28 10 15 1019.8 1019.7 0.0
25/10:30pm 13.2 8.7 -0.1 40 5.5 SSW 13 20 7 11 1019.8 1019.7 0.0
25/10:00pm 13.1 9.1 0.2 41 5.4 SSW 11 19 6 10 1019.6 1019.5 0.0
25/09:30pm 13.5 8.6 -0.5 38 5.8 SSW 15 22 8 12 1019.5 1019.4 0.0
25/09:00pm 14.2 8.8 -1.0 35 6.2 S 17 26 9 14 1019.3 1019.2 0.0
25/08:30pm 14.4 9.4 -1.2 34 6.4 S 15 24 8 13 1019.2 1019.1 0.0
25/08:00pm 14.4 8.9 -2.1 32 6.6 S 17 30 9 16 1018.9 1018.8 0.0
25/07:30pm 15.2 8.8 -1.8 31 6.9 S 22 44 12 24 1018.5 1018.4 0.0
25/07:00pm 15.9 8.8 -1.6 30 7.2 S 26 41 14 22 1018.0 1017.9 0.0
25/06:30pm 16.9 10.4 -2.7 26 8.0 S 22 35 12 19 1017.7 1017.6 0.0
25/06:00pm 17.2 10.7 -2.4 26 8.0 S 22 35 12 19 1017.4 1017.4 0.0
25/05:30pm 17.5 11.5 -2.7 25 8.3 SSE 19 32 10 17 1017.5 1017.5 0.0
25/05:00pm 17.2 10.3 -3.0 25 8.2 S 24 39 13 21 1017.5 1017.5 0.0
25/04:30pm 17.1 10.5 -3.1 25 8.2 S 22 37 12 20 1017.7 1017.6 0.0
25/04:00pm 17.0 9.8 -2.1 27 7.9 SSE 26 44 14 24 1018.0 1017.9 0.0
25/03:30pm 16.5 10.6 -2.0 28 7.6 S 19 35 10 19 1018.1 1018.0 0.0
25/03:00pm 16.3 9.5 -2.2 28 7.5 S 24 41 13 22 1018.5 1018.4 0.0
25/02:30pm 15.8 9.4 -1.7 30 7.2 S 22 35 12 19 1018.9 1018.8 0.0
25/02:00pm 15.7 9.0 -1.4 31 7.0 SSE 24 39 13 21 1019.0 1018.9 0.0
25/01:30pm 15.3 9.4 -0.9 33 6.7 SSE 20 32 11 17 1019.4 1019.3 0.0
25/01:00pm 14.3 8.0 -1.3 34 6.4 S 22 33 12 18 1019.8 1019.7 0.0
25/12:30pm 14.2 7.6 -0.3 37 6.0 S 24 41 13 22 1019.9 1019.8 0.0
25/12:00pm 13.9 6.5 -0.9 36 6.1 S 28 46 15 25 1020.3 1020.2 0.0
25/11:57am 13.6 6.0 -2.3 33 6.3 S 28 46 15 25 1020.3 1020.2 0.0
25/11:30am 13.5 6.4 -1.3 36 6.0 SSE 26 39 14 21 1020.6 1020.5 0.0
25/11:00am 13.3 6.3 -0.3 39 5.6 S 26 39 14 21 1020.8 1020.7 0.0
25/10:31am 12.2 4.9 0.0 43 5.0 S 28 50 15 27 1020.8 1020.7 0.0
25/10:30am 12.7 5.8 0.1 42 5.2 SSE 26 39 14 21 1020.8 1020.7 0.0
25/10:00am 12.4 5.6 1.1 46 4.8 SSE 26 39 14 21 1021.1 1021.0 0.0
25/09:32am 11.6 4.7 2.6 54 3.9 SSE 28 46 15 25 1021.1 1021.0 0.0
25/09:30am 11.5 4.7 3.0 56 3.7 SSE 28 41 15 22 1021.1 1021.0 0.0
25/09:00am 10.5 5.1 4.6 67 2.6 SSE 22 35 12 19 1020.8 1020.7 0.2
25/08:30am 9.6 5.2 5.0 73 2.1 S 17 28 9 15 1020.4 1020.3 0.2
25/08:00am 8.5 4.2 5.4 81 1.4 S 17 24 9 13 1019.9 1019.8 0.2
25/07:30am 7.4 3.1 5.2 86 1.0 SSW 17 26 9 14 1019.4 1019.3 0.2
25/07:00am 6.8 3.2 5.0 88 0.8 SSW 13 22 7 12 1018.9 1018.8 0.2
25/06:30am 6.7 3.0 4.7 87 0.9 SSW 13 19 7 10 1018.4 1018.3 0.2
25/06:00am 7.0 2.9 4.5 84 1.1 SSW 15 22 8 12 1018.1 1018.0 0.2
25/05:30am 7.3 3.6 4.3 81 1.3 SSW 13 22 7 12 1017.8 1017.7 0.2
25/05:00am 7.7 4.0 4.3 79 1.5 SSW 13 19 7 10 1017.5 1017.5 0.2
25/04:30am 8.1 4.4 4.3 77 1.7 SSW 13 20 7 11 1017.5 1017.5 0.2
25/04:00am 8.6 5.2 4.2 74 1.9 SSW 11 19 6 10 1017.5 1017.5 0.2
25/03:30am 9.1 5.3 4.1 71 2.2 SSW 13 19 7 10 1017.2 1017.2 0.2
25/03:00am 9.9 5.7 3.9 66 2.6 SSW 15 22 8 12 1017.1 1017.1 0.2
25/02:30am 10.5 6.2 3.5 62 3.1 SSW 15 24 8 13 1017.1 1017.1 0.2
25/02:00am 11.1 7.1 2.9 57 3.6 SSW 13 22 7 12 1017.0 1017.0 0.2
25/01:30am 11.2 6.9 3.0 57 3.6 SSW 15 20 8 11 1017.0 1017.0 0.2
25/01:00am 11.0 7.0 2.8 57 3.6 SSW 13 19 7 10 1016.7 1016.7 0.2
25/12:30am 11.3 6.9 2.6 55 3.8 SSW 15 24 8 13 1016.5 1016.5 0.2
25/12:00am 11.9 7.1 2.6 53 4.0 SSW 17 22 9 12 1016.2 1016.2 0.2
 
Date/Time
EDT
Temp
°C
App
Temp
°C
Dew
Point
°C
Rel
Hum
%
Delta-T
°C
Wind Press
QNH
hPa
Press
MSL
hPa
Rain since
9am
mm
Dir  Spd
km/h
Gust
km/h
Spd
kts
Gust
kts
24/11:30pm 12.2 7.1 2.9 53 4.1 SSW 19 33 10 18 1015.8 1015.8 0.2
24/11:00pm 12.7 7.4 2.8 51 4.4 SSW 20 35 11 19 1015.5 1015.5 0.2
24/10:30pm 12.7 7.6 2.8 51 4.4 SSW 19 28 10 15 1015.2 1015.2 0.2
24/10:00pm 13.0 7.7 2.8 50 4.5 SSW 20 30 11 16 1014.9 1014.9 0.2
24/09:30pm 13.6 7.9 2.8 48 4.8 SSW 22 37 12 20 1014.3 1014.3 0.2
24/09:00pm 14.0 8.3 2.9 47 5.0 SSW 22 35 12 19 1013.8 1013.8 0.2
24/08:30pm 14.4 9.8 3.5 48 4.9 SW 17 28 9 15 1013.3 1013.2 0.2
24/08:00pm 15.3 9.7 3.5 45 5.4 SW 22 33 12 18 1012.7 1012.6 0.2
24/07:30pm 16.2 10.2 3.6 43 5.8 SSW 24 39 13 21 1012.1 1012.0 0.2
24/07:00pm 16.8 11.8 4.8 45 5.7 SSW 20 35 11 19 1011.4 1011.3 0.2
24/06:30pm 17.7 11.6 5.0 43 6.1 SSW 26 43 14 23 1011.0 1010.9 0.2
24/06:19pm 17.8 11.3 4.7 42 6.3 SSW 28 46 15 25 1010.8 1010.7 0.2
24/06:00pm 17.8 11.4 5.4 44 6.0 SSW 28 43 15 23 1010.5 1010.4 0.2
24/05:30pm 19.0 13.6 6.2 43 6.4 SSW 24 39 13 21 1010.2 1010.1 0.2
24/05:00pm 17.5 11.7 6.1 47 5.6 S 26 43 14 23 1010.1 1010.0 0.2
24/04:30pm 17.2 11.7 6.1 48 5.4 S 24 35 13 19 1010.3 1010.2 0.2
24/04:00pm 18.2 12.6 7.0 48 5.6 SSW 26 44 14 24 1010.2 1010.1 0.2
24/03:30pm 17.8 12.2 7.0 49 5.4 SSW 26 44 14 24 1010.1 1010.0 0.2
24/03:00pm 18.2 13.2 7.9 51 5.3 SSW 24 44 13 24 1009.9 1009.8 0.2
24/02:42pm 18.6 12.6 7.1 47 5.8 SSW 28 50 15 27 1009.7 1009.6 0.2
24/02:30pm 18.1 12.1 6.9 48 5.6 SSW 28 41 15 22 1009.8 1009.7 0.2
24/02:00pm 17.9 12.2 6.7 48 5.6 SSW 26 41 14 22 1009.7 1009.6 0.2
24/01:30pm 17.1 11.6 7.5 53 4.8 SSW 26 39 14 21 1009.7 1009.6 0.2
24/01:00pm 17.0 12.7 9.4 61 4.0 SSW 22 43 12 23 1009.6 1009.5 0.2
24/12:30pm 15.4 9.8 8.9 65 3.3 S 28 39 15 21 1009.6 1009.5 0.2
24/12:00pm 14.6 10.5 10.2 75 2.3 SSW 22 41 12 22 1009.4 1009.3 0.2
24/11:30am 13.7 9.2 10.1 79 1.9 SSW 24 37 13 20 1009.0 1008.9 0.2
24/11:14am 13.4 8.6 10.4 82 1.6 SSW 26 39 14 21 1008.9 1008.8 0.2
24/11:00am 12.9 7.7 10.4 85 1.3 SSW 28 44 15 24 1008.8 1008.7 0.2
24/10:30am 12.5 7.9 11.2 92 0.7 SSW 26 41 14 22 1008.4 1008.3 0.2
24/10:00am 12.5 9.0 12.2 98 0.2 SSW 22 37 12 20 1008.0 1007.9 0.2
24/09:33am 12.9 10.0 12.9 100 0.0 SSW 20 32 11 17 1007.6 1007.5 0.2
24/09:30am 12.9 10.0 12.9 100 0.0 SSW 20 32 11 17 1007.6 1007.5 0.2
24/09:05am 13.0 9.8 13.0 100 0.0 SSW 22 35 12 19 1007.1 1007.0 0.0
24/09:00am 13.2 9.6 13.2 100 0.0 SSW 24 39 13 21 1007.0 1006.9 21.6
24/08:47am 13.2 8.9 13.2 100 0.0 SSW 28 46 15 25 1006.9 1006.8 21.6
24/08:30am 13.1 9.1 13.1 100 0.0 SSW 26 41 14 22 1006.7 1006.6 21.6
24/08:29am 13.1 9.5 13.1 100 0.0 SSW 24 41 13 22 1006.7 1006.6 21.6
24/08:07am 13.4 10.3 13.4 100 0.0 SSW 22 39 12 21 1006.3 1006.2 21.4
24/08:00am 13.4 9.5 13.4 100 0.0 SSW 26 43 14 23 1006.1 1006.0 21.4
24/07:30am 13.8 10.8 13.8 100 0.0 SSW 22 33 12 18 1005.6 1005.5 21.4
24/07:00am 13.9 10.6 13.9 100 0.0 SSW 24 41 13 22 1004.9 1004.8 21.4
24/06:30am 14.5 11.4 14.5 100 0.0 SSW 24 35 13 19 1004.4 1004.3 21.4
24/06:00am 14.8 12.6 14.8 100 0.0 SSW 20 35 11 19 1004.0 1003.9 21.4
24/05:30am 15.3 13.2 15.3 100 0.0 SW 20 32 11 17 1003.5 1003.4 21.0
24/05:00am 16.4 15.7 16.4 100 0.0 SSW 15 22 8 12 1003.2 1003.1 20.6
24/04:30am 16.2 15.4 16.2 100 0.0 SSW 15 22 8 12 1002.7 1002.6 20.4
24/04:28am 16.2 15.4 16.2 100 0.0 SSW 15 22 8 12 1002.8 1002.7 20.4
24/04:00am 16.1 16.0 16.1 100 0.0 SSW 11 15 6 8 1003.2 1003.1 20.4
24/03:30am 16.1 16.0 16.1 100 0.0 SSW 11 17 6 9 1003.3 1003.2 20.0
24/03:23am 16.1 16.0 16.1 100 0.0 S 11 19 6 10 1003.3 1003.2 20.0
24/03:00am 16.1 16.4 16.1 100 0.0 S 9 15 5 8 1003.4 1003.3 18.8
24/02:30am 16.2 16.9 16.2 100 0.0 S 7 9 4 5 1003.7 1003.6 15.2
24/02:11am 16.2 17.5 16.2 100 0.0 SSW 4 9 2 5 1004.2 1004.1 14.0
24/02:00am 16.2 16.6 16.2 100 0.0 SW 9 15 5 8 1004.3 1004.2 13.6
24/01:30am 16.2 16.2 16.2 100 0.0 SSW 11 17 6 9 1004.1 1004.0 13.0
24/01:18am 16.3 15.9 16.3 100 0.0 SSW 13 20 7 11 1004.0 1003.9 12.8
24/01:00am 16.4 16.1 16.4 100 0.0 SW 13 22 7 12 1004.0 1003.9 12.2
24/12:48am 16.5 15.8 16.5 100 0.0 S 15 22 8 12 1003.6 1003.5 10.8
24/12:47am 16.5 15.8 16.5 100 0.0 S 15 22 8 12 1003.6 1003.5 10.8
24/12:30am 16.8 14.8 16.5 98 0.2 NW 22 39 12 21 1005.6 1005.5 5.6
24/12:27am 17.1 15.5 16.5 96 0.4 NW 20 39 11 21 1005.9 1005.8 3.4
24/12:17am 17.6 16.8 16.1 91 0.9 SSW 15 20 8 11 1004.2 1004.1 2.0
24/12:00am 17.7 17.7 16.2 91 0.9 SSW 11 17 6 9 1003.6 1003.5 2.0
 
Date/Time
EDT
Temp
°C
App
Temp
°C
Dew
Point
°C
Rel
Hum
%
Delta-T
°C
Wind Press
QNH
hPa
Press
MSL
hPa
Rain since
9am
mm
Dir  Spd
km/h
Gust
km/h
Spd
kts
Gust
kts
23/11:30pm 17.6 17.2 16.1 91 0.9 S 13 19 7 10 1003.2 1003.1 2.0
23/11:00pm 17.3 17.7 16.2 93 0.7 S 9 13 5 7 1003.3 1003.2 2.0
23/10:30pm 17.3 18.0 16.0 92 0.8 SSE 7 11 4 6 1003.3 1003.2 2.0
23/10:00pm 17.0 17.3 16.0 94 0.6 S 9 13 5 7 1003.0 1002.9 2.0
23/09:30pm 17.2 18.1 16.2 94 0.6 SSE 6 7 3 4 1003.1 1003.0 2.0
23/09:00pm 17.3 18.4 16.7 96 0.4 SE 6 7 3 4 1003.2 1003.1 2.0
23/08:30pm 17.7 20.1 16.9 95 0.5 CALM 0 0 0 0 1003.6 1003.5 2.0
23/08:00pm 18.0 20.4 16.9 93 0.7 CALM 0 0 0 0 1003.8 1003.7 2.0
23/07:30pm 18.3 20.0 16.3 88 1.2 SW 2 6 1 3 1003.8 1003.7 2.0
23/07:00pm 18.5 19.2 16.1 86 1.4 SSW 7 11 4 6 1003.6 1003.5 2.0
23/06:30pm 18.5 18.1 16.3 87 1.3 SSW 13 19 7 10 1002.7 1002.6 2.0
23/06:00pm 18.5 18.1 16.3 87 1.3 NNE 13 22 7 12 1002.8 1002.7 2.0
23/05:30pm 18.2 16.7 16.4 89 1.1 E 19 28 10 15 1001.3 1001.2 2.0
23/05:20pm 18.2 17.3 16.9 92 0.8 E 17 24 9 13 1001.2 1001.1 2.0
23/05:00pm 18.2 18.4 16.7 91 0.9 E 11 15 6 8 1003.2 1003.1 2.0
23/04:30pm 18.3 18.7 16.3 88 1.2 NW 9 15 5 8 1004.9 1004.8 1.8
23/04:20pm 18.2 17.7 15.8 86 1.4 WNW 13 17 7 9 1004.9 1004.8 1.6
23/04:00pm 18.8 18.2 15.7 82 1.8 WNW 13 19 7 10 1005.4 1005.3 0.8
23/03:56pm 19.1 18.3 15.2 78 2.3 WNW 13 19 7 10 1005.4 1005.3 0.6
23/03:30pm 22.9 20.4 11.0 47 6.6 W 15 24 8 13 1005.3 1005.2 0.0
23/03:21pm 23.7 22.0 11.1 45 7.1 SW 11 - 6 - - 1004.8 -
23/03:00pm 24.2 22.9 11.2 44 7.3 SSW 9 15 5 8 1005.0 1004.9 0.0
23/02:30pm 24.6 22.8 10.8 42 7.7 SSW 11 15 6 8 1005.0 1004.9 0.0
23/02:00pm 24.6 23.3 11.2 43 7.6 SSW 9 19 5 10 1005.1 1005.0 0.0
23/01:30pm 24.6 22.5 11.2 43 7.5 SW 13 20 7 11 1005.0 1004.9 0.0
23/01:00pm 25.0 22.8 10.8 41 8.0 SW 13 26 7 14 1005.4 1005.3 0.0
23/12:30pm 25.4 25.5 10.1 38 8.5 CALM 0 0 0 0 1005.6 1005.5 0.0
23/12:00pm 24.5 23.0 11.8 45 7.2 NNE 11 17 6 9 1006.0 1005.9 0.0
23/11:30am 23.4 22.5 11.5 47 6.7 ENE 7 17 4 9 1005.9 1005.8 0.0
23/11:00am 22.3 21.2 10.5 47 6.5 ESE 7 11 4 6 1006.1 1006.0 0.0
23/10:30am 21.6 20.3 10.1 48 6.3 SE 7 11 4 6 1006.2 1006.1 0.0
23/10:00am 20.4 19.1 11.1 55 5.1 E 9 13 5 7 1006.2 1006.1 0.0
23/09:30am 20.0 20.4 11.2 57 4.8 CALM 0 0 0 0 1006.2 1006.1 0.0
23/09:00am 21.1 18.9 7.7 42 7.0 ENE 9 13 5 7 1005.9 1005.8 0.0
23/08:30am 21.0 20.3 6.9 40 7.2 CALM 0 0 0 0 1005.9 1005.8 0.0
23/08:00am 20.5 19.9 7.2 42 6.8 CALM 0 0 0 0 1005.8 1005.7 0.0
23/07:30am 20.3 18.5 5.5 38 7.3 N 4 9 2 5 1005.5 1005.4 0.0
23/07:00am 20.8 16.8 4.8 35 7.9 NNE 15 20 8 11 1005.1 1005.0 0.0
23/06:30am 21.6 17.5 4.2 32 8.5 N 15 24 8 13 1005.0 1004.9 0.0
23/06:00am 21.5 16.7 4.6 33 8.3 NE 19 24 10 13 1004.2 1004.1 0.0
23/05:30am 21.7 17.2 4.3 32 8.5 NE 17 22 9 12 1004.3 1004.2 0.0
23/05:00am 22.0 17.2 4.6 32 8.6 NE 19 24 10 13 1004.6 1004.5 0.0
23/04:30am 22.1 18.1 4.7 32 8.6 NE 15 20 8 11 1004.7 1004.6 0.0
23/04:00am 22.4 18.0 4.5 31 8.8 NE 17 20 9 11 1005.0 1004.9 0.0
23/03:30am 22.3 17.6 5.3 33 8.5 NE 19 24 10 13 1005.1 1005.0 0.0
23/03:00am 20.3 18.0 7.3 43 6.7 NE 9 13 5 7 1005.6 1005.5 0.0
23/02:30am 20.2 19.3 7.6 44 6.5 E 2 7 1 4 1006.1 1006.0 0.0
23/02:00am 20.6 18.6 6.9 41 7.0 E 7 9 4 5 1006.8 1006.7 0.0
23/01:30am 20.3 18.7 8.0 45 6.4 E 6 7 3 4 1007.4 1007.3 0.0

Other formats

Comma delimited format used in spreadsheet applications
http://www.bom.gov.au/fwo/IDN60801/IDN60801.94693.axf

JavaScript Object Notation format (JSON) in row-major order
http://www.bom.gov.au/fwo/IDN60801/IDN60801.94693.json

Data quality

Most of these data are generated automatically and are frequently updated. Quality checks on data are not normally performed. It is possible for incorrect values to appear. Refer to information at About Latest Weather Observations and please check the disclaimer before using these data.